ORLYDB

World´s safest download option! Anonymous Downloads & Identity Protection!
2014-08-29 14:20:00 PS3 Wolfenstein_The_New_Order_USA_PS3-CLANDESTiNE DL
2014-08-23 17:15:56 PS3 Diablo_III_Reaper_of_Souls_Ultimate_Evil_Edition_JPN_PS3-HR DL 11627.9MB | 82F
2014-08-22 20:55:43 PS3 Madden.NFL.15.PS3-DUPLEX DL 8311.0MB | 88F
2014-08-22 18:35:12 PS3 Tales_of_Xillia_2_EUR_MULTi5_PS3-ABSTRAKT DL 4603.0MB | 51F
2014-08-22 11:45:13 PS3 Ultra_Street_Fighter_IV_JPN_PS3-HR DL 18258.9MB | 96F
2014-08-21 23:20:29 PS3 Sacred_2_Fallen_Angel_USA_PS3-Googlecus DL 8868.3MB | 95F
2014-08-19 06:48:45 PS3 Diablo.III.Reaper.of.Souls.Ultimate.Evil.Edition.MULTi5.PS3-UNLiMiTED DL
2014-08-18 02:44:58 PS3 Bound_by_Flame_USA_PS3-CLANDESTiNE DL 2408.2MB | 51F
2014-08-16 03:57:00 PS3 Lost_Dimension_JPN_PS3-HR DL 1204.0MB | 28F
2014-08-16 02:04:32 PS3 Tales.of.Xillia.2.PS3-iMARS DL
2014-08-15 21:33:43 PS3 Diablo.III.Reaper.of.Souls.Ultimate.Evil.Edition.PS3-DUPLEX DL 15012.0MB | 79F
2014-08-14 07:52:14 PS3 Shin_Hayarigami_JPN_PS3-HR DL 794.1MB | 17F
2014-08-13 03:13:14 PS3 Akibas.Trip.Undead.and.Undressed.PS3-DUPLEX DL 3787.0MB | 40F
2014-08-12 18:38:54 PS3 Risen_3_Titan_Lords_EUR_PS3-ANTiDOTE DL 3414.7MB | 38F
2014-08-11 18:21:14 PS3 Risen.3.Titan.Lords.PS3-DUPLEX DL 3706.0MB | 39F
2014-08-10 18:32:59 PS3 Minecraft_PlayStation_3_Edition_USA_PS3-CLANDESTiNE DL 285.2MB | 6F
2014-08-07 08:50:57 PS3 WRC_4_FIA_World_Rally_Championship_JPN_PS3-HR DL 3861.8MB | 41F
2014-08-06 12:12:05 PS3 Dead_Island_Double_Zombie_Pack_JPN_PS3-HR DL 10456.0MB | 76F
2014-08-04 14:11:51 PS3 Mugen_Souls_Z_USA_PS3-CLANDESTiNE DL 7553.5MB | 80F
2014-08-04 14:01:25 PS3 Sniper_Elite_III_USA_PS3-CLANDESTiNE DL 3609.7MB | 76F
2014-08-02 04:19:40 PS3 Ultra.Street.Fighter.IV.PS3-iMARS DL
2014-07-31 11:56:19 PS3 Under_Night_In-Birth_Exe_Late_JPN_PS3-HR DL 1316.1MB | 28F
2014-07-28 18:49:29 PS3 Final_Fantasy_X_X-2_HD_Remaster_USA_PS3-CLANDESTiNE DL 22500.0MB | 97F
2014-07-28 18:41:08 PS3 The_Witch_and_the_Hundred_Knight_USA_PS3-CLANDESTiNE DL 2222.0MB | 47F
2014-07-26 01:30:19 PS3 Sacred_3_PS3-ACCiDENT DL 6919.0MB | 73F
2014-07-25 17:38:55 PS3 Murdered_Tamashii_no_Yobu_Koe_JPN_PS3-HR DL 9692.0MB | 71F
2014-07-25 17:38:55 PS3 Murdered_Soul_Suspect_USA_PS3-HR DL 9736.0MB | 71F
2014-07-25 17:38:54 PS3 Kamen_Rider_Battride_War_II_JPN_PS3-HR DL 2628.0MB | 59F
2014-07-25 17:38:53 PS3 Final_Fantasy_X_X-2_HD_Remaster_ASIA_PS3-HR DL 22741.0MB | 99F
2014-07-22 10:51:46 PS3 Shallie_no_Atelier_Tasogare_no_Umi_no_Renkinjutsushi_JPN_PS3-HR DL 6290.0MB | 69F
2014-07-22 10:51:45 PS3 Saikyou_Shougi_Gekisashi_13_JPN_PS3-HR DL 455.0MB | 13F
2014-07-20 05:52:40 PS3 Abyss.Odyssey.PSN.PS3-PSFR33 DL
2014-07-17 15:09:34 PS3 Bloodbath.PS3-DUPLEX DL 650.0MB | 13F
2014-07-17 15:03:18 PS3 Kick-Ass.2.PS3-DUPLEX DL 750.0MB | 15F
2014-07-16 21:35:05 PS3 Twisted.Lands.Shadow.Town.PSN.PS3-DUPLEX DL 550.0MB | 11F
2014-07-15 11:30:15 PS3 Dead_Space_EUR_MULTi2_PS3-Googlecus DL 6547.1MB | 72F
2014-07-13 05:07:23 PS3 Thief_USA_PS3-CLANDESTiNE DL 6135.0MB | 65F
2014-07-13 04:20:49 PS3 Atelier_Escha_and_Logy_Alchemists_of_the_Dusk_Sky_USA_PS3-CLANDESTiNE DL 5899.0MB | 62F
2014-07-10 02:33:56 PS3 Lightning_Returns_Final_Fantasy_XIII_USA_PS3-CLANDESTiNE DL 9738.0MB | 69F
2014-07-10 02:26:28 PS3 The_Lego_Movie_Videogame_USA_PS3-CLANDESTiNE DL 5381.9MB | 57F
2014-07-04 11:04:31 PS3 F1_2013_Complete_Edition_JPN_PS3-HR DL 6565.0MB | 72F
2014-07-02 14:16:54 PS3 Ratchet_and_Clank_Ginga_Saikyou_Tri_Star_Pack_JPN_PS3-HR DL 15118.0MB | 83F
2014-07-02 10:38:45 PS3 Kamen_Rider_Battride_War_II_Premium_TV_and_Movie_Sound_Edition_JPN_PS3-HR DL 2706.0MB | 60F
2014-07-01 10:20:34 PS3 Watch_Dogs_JPN_PS3-HR DL 9969.0MB | 73F
2014-06-30 11:04:40 PS3 Cross_Channel_For_All_People_JPN_PS3-HR DL 2840.0MB | 62F
2014-06-30 09:46:55 PS3 Date_A_Live_Arusu_Install_JPN_PS3-HR DL 3298.0MB | 72F
2014-06-28 15:50:46 PS3 Transformers_Rise_of_the_Dark_Spark_EUR_MULTi5_PS3-ABSTRAKT DL 7874.0MB | 85F
2014-06-28 08:58:35 PS3 CV_Casting_Voice_JPN_PS3-HR DL 2418.0MB | 51F
2014-06-27 21:50:50 PS3 Tomb.Raider.PS3-DUPLEX DL
2014-06-26 11:11:43 PS3 GRID_Autosport_EUR_MULTi7_PS3-ABSTRAKT DL 7210.0MB | 78F
 ░                                                                      ░
 ▒                                                                      ▒
 ▓     Server Time:                               info@orlydb.com       ▓
 █░    2014-08-31 08:14:44                        Hide/Show header     ░█
 █▄                                                                    ▄█
 ▀█▄                            ░▄▄▄▄▄▄▄▄░                            ▄█▀
  ▀█▄▒                 ░▄▄█████████▀▀▀▀█████████▄▄░                 ▒▄█▀
   ▀██▄░░     ░▄▄██████████▀▀░              ░▀▀██████████▄▄░     ░░▄██▀
    ░▀███████████▀▀                                    ▀▀███████████▀░
        ▀▀▀░    █   ▄▄▄▄  ▄▄▄▄  ▄▄  ▄▄   ▄ ▄▄▄▄  ▄▄▄▄    █    ░▀▀▀
                ▓   ██  █ ██ ██ ██   █▄ ▄█ ██  █ ██ ██   ▓
                ▒   ▓█  █ ▓█▄██ ▓█    ▓██  ▓█  █ ▓█▄█▀   ▒
                ▓   ▓████ ▓█ █▄ ▓█▄▄▄ ▓██  ▓███▀ ▓█▄██   ▓
                █▄▄▄▄▄▄▄▄▄▄▄▄▄▄▄▄▄▄▄▄▄▄▄▄▄▄▄▄▄▄▄▄▄▄▄▄▄▄▄▄█